createdAt,value
2018-12-19T00:01:05.370Z,-0.10
2018-12-19T00:03:38.361Z,-0.20
2018-12-19T00:06:11.724Z,-0.40
2018-12-19T00:08:44.134Z,-0.50
2018-12-19T00:11:16.506Z,-0.60
2018-12-19T00:13:50.178Z,-0.70
2018-12-19T00:16:22.674Z,-0.70
2018-12-19T00:18:56.032Z,-0.60
2018-12-19T00:21:28.863Z,-0.50
2018-12-19T00:24:03.713Z,-0.50
2018-12-19T00:26:37.957Z,-0.60
2018-12-19T00:29:11.724Z,-0.60
2018-12-19T00:31:45.910Z,-0.50
2018-12-19T00:34:18.823Z,-0.50
2018-12-19T00:36:52.808Z,-0.40
2018-12-19T00:39:25.232Z,-0.40
2018-12-19T00:41:58.908Z,-0.40
2018-12-19T00:44:33.011Z,-0.60
2018-12-19T00:47:07.278Z,-0.70
2018-12-19T00:49:40.755Z,-0.80
2018-12-19T00:52:16.443Z,-0.80
2018-12-19T00:54:51.725Z,-0.80
2018-12-19T00:57:22.828Z,-0.70
2018-12-19T00:59:56.897Z,-0.70
2018-12-19T01:02:31.724Z,-0.60
2018-12-19T01:05:06.414Z,-0.60
2018-12-19T01:07:39.330Z,-0.60
2018-12-19T01:10:15.122Z,-0.60
2018-12-19T01:12:48.019Z,-0.60
2018-12-19T01:15:22.844Z,-0.60
2018-12-19T01:17:55.181Z,-0.50
2018-12-19T01:20:29.124Z,-0.50
2018-12-19T01:23:03.792Z,-0.50
2018-12-19T01:25:35.360Z,-0.50
2018-12-19T01:28:11.080Z,-0.60
2018-12-19T01:30:43.145Z,-0.60
2018-12-19T01:33:17.969Z,-0.60
2018-12-19T01:35:50.985Z,-0.70
2018-12-19T01:38:28.262Z,-0.70
2018-12-19T01:41:02.181Z,-0.60
2018-12-19T01:43:34.897Z,-0.60
2018-12-19T01:46:09.487Z,-0.50
2018-12-19T01:48:42.436Z,-0.60
2018-12-19T01:51:18.198Z,-0.60
2018-12-19T01:53:51.724Z,-0.60
2018-12-19T01:56:25.488Z,-0.60
2018-12-19T01:58:59.031Z,-0.70
2018-12-19T02:01:30.787Z,-0.70
2018-12-19T02:04:04.015Z,-0.80
2018-12-19T02:06:38.089Z,-0.80
2018-12-19T02:09:12.559Z,-0.80
2018-12-19T02:11:48.772Z,-0.80
2018-12-19T02:14:21.724Z,-0.80
2018-12-19T02:16:56.406Z,-0.80
2018-12-19T02:19:28.943Z,-0.80
2018-12-19T02:22:03.096Z,-0.80
2018-12-19T02:24:38.007Z,-0.90
2018-12-19T02:27:12.304Z,-0.90
2018-12-19T02:29:44.454Z,-1.00
2018-12-19T02:32:19.474Z,-1.00
2018-12-19T02:34:54.141Z,-1.00
2018-12-19T02:37:28.336Z,-1.10
2018-12-19T02:40:04.452Z,-1.10
2018-12-19T02:42:39.510Z,-1.10
2018-12-19T02:45:14.390Z,-1.00
2018-12-19T02:47:47.965Z,-1.00
2018-12-19T02:50:20.735Z,-1.10
2018-12-19T02:52:54.921Z,-1.10
2018-12-19T02:55:29.123Z,-1.20
2018-12-19T02:58:04.579Z,-1.30
2018-12-19T03:00:38.196Z,-1.40
2018-12-19T03:03:11.204Z,-1.40
2018-12-19T03:05:46.213Z,-1.30
2018-12-19T03:08:21.723Z,-1.30
2018-12-19T03:10:54.851Z,-1.30
2018-12-19T03:13:30.050Z,-1.30
2018-12-19T03:16:03.485Z,-1.30
2018-12-19T03:18:41.160Z,-1.20
2018-12-19T03:21:14.307Z,-1.10
2018-12-19T03:23:50.121Z,-1.10
2018-12-19T03:26:22.963Z,-1.10
2018-12-19T03:28:57.315Z,0.00
2018-12-19T03:31:31.727Z,-1.30
2018-12-19T03:34:07.463Z,-1.20
2018-12-19T03:36:42.777Z,-1.20
2018-12-19T03:39:17.529Z,-1.30
2018-12-19T03:41:51.724Z,-1.20
2018-12-19T03:44:23.750Z,-1.20
2018-12-19T03:46:57.363Z,-1.10
2018-12-19T03:49:28.912Z,-1.10
2018-12-19T03:52:01.969Z,-1.10
2018-12-19T03:54:37.642Z,-1.00
2018-12-19T03:57:09.469Z,-1.10
2018-12-19T03:59:43.006Z,-1.00
2018-12-19T04:02:17.077Z,-0.90
2018-12-19T04:04:51.723Z,-0.80
2018-12-19T04:07:26.713Z,-0.80
2018-12-19T04:10:01.720Z,-0.70
2018-12-19T04:12:37.428Z,-0.70
2018-12-19T04:15:13.547Z,-0.60
2018-12-19T04:17:48.145Z,-0.60
2018-12-19T04:20:21.727Z,-0.60
2018-12-19T04:22:58.176Z,-0.60
2018-12-19T04:25:28.513Z,-0.70
2018-12-19T04:28:04.048Z,-0.80
2018-12-19T04:30:41.724Z,-0.60
2018-12-19T04:33:15.123Z,-0.60
2018-12-19T04:35:49.545Z,-0.60
2018-12-19T04:38:21.724Z,-0.50
2018-12-19T04:40:56.857Z,-0.50
2018-12-19T04:43:28.878Z,-0.40
2018-12-19T04:45:59.801Z,-0.40
2018-12-19T04:48:36.665Z,-0.50
2018-12-19T04:51:11.725Z,-0.40
2018-12-19T04:53:45.778Z,-0.40
2018-12-19T04:56:20.171Z,-0.40
2018-12-19T04:58:55.221Z,-0.30
2018-12-19T05:01:30.583Z,-0.30
2018-12-19T05:04:05.553Z,-0.30
2018-12-19T05:06:38.524Z,-0.30
2018-12-19T05:09:12.788Z,-0.30
2018-12-19T05:11:46.663Z,-0.30
2018-12-19T05:14:20.944Z,-0.30
2018-12-19T05:16:57.411Z,-0.40
2018-12-19T05:19:31.125Z,-0.30
2018-12-19T05:22:05.103Z,-0.40
2018-12-19T05:24:37.815Z,-0.30
2018-12-19T05:27:13.587Z,-0.30
2018-12-19T05:29:50.112Z,-0.40
2018-12-19T05:32:26.351Z,-0.30
2018-12-19T05:35:01.006Z,-0.30
2018-12-19T05:37:35.520Z,-0.30
2018-12-19T05:40:10.340Z,-0.30
2018-12-19T05:45:21.725Z,-0.30
2018-12-19T05:47:57.988Z,-0.30
2018-12-19T05:50:31.725Z,-0.20
2018-12-19T05:53:07.359Z,-0.20
2018-12-19T05:55:41.100Z,-0.20
2018-12-19T05:58:14.907Z,-0.20
2018-12-19T06:00:46.812Z,-0.20
2018-12-19T06:03:22.457Z,-0.20
2018-12-19T06:05:57.101Z,-0.10
2018-12-19T06:08:31.724Z,-0.10
2018-12-19T06:11:05.837Z,-0.10
2018-12-19T06:13:41.724Z,0.00
2018-12-19T06:16:16.853Z,0.00
2018-12-19T06:18:52.622Z,0.10
2018-12-19T06:21:28.561Z,0.10
2018-12-19T06:24:01.487Z,0.10
2018-12-19T06:26:36.916Z,0.10
2018-12-19T06:29:12.970Z,0.10
2018-12-19T06:31:44.684Z,0.10
2018-12-19T06:34:17.418Z,0.10
2018-12-19T06:36:53.137Z,0.10
2018-12-19T06:39:25.935Z,0.10
2018-12-19T06:41:59.964Z,0.10
2018-12-19T06:44:31.037Z,0.00
2018-12-19T06:46:59.355Z,0.00
2018-12-19T06:49:35.741Z,0.10
2018-12-19T06:52:09.853Z,0.10
2018-12-19T06:54:45.508Z,0.10
2018-12-19T06:57:20.491Z,0.20
2018-12-19T06:59:58.361Z,0.20
2018-12-19T07:02:30.641Z,0.20
2018-12-19T07:05:05.428Z,0.20
2018-12-19T07:07:37.988Z,0.20
2018-12-19T07:10:13.021Z,0.20
2018-12-19T07:12:46.585Z,0.20
2018-12-19T07:15:20.592Z,0.20
2018-12-19T07:17:53.175Z,0.20
2018-12-19T07:20:28.169Z,0.30
2018-12-19T07:23:00.997Z,0.30
2018-12-19T07:25:36.649Z,0.30
2018-12-19T07:28:11.726Z,0.40
2018-12-19T07:30:43.767Z,0.40
2018-12-19T07:33:16.201Z,0.50
2018-12-19T07:35:50.043Z,0.50
2018-12-19T07:38:23.194Z,0.50
2018-12-19T07:40:56.802Z,0.60
2018-12-19T07:43:30.956Z,0.60
2018-12-19T07:46:04.767Z,0.70
2018-12-19T07:48:36.825Z,0.70
2018-12-19T07:51:13.857Z,0.80
2018-12-19T07:53:47.912Z,0.90
2018-12-19T07:56:21.725Z,0.90
2018-12-19T07:58:56.088Z,0.90
2018-12-19T08:01:31.725Z,0.80
2018-12-19T08:04:04.448Z,0.90
2018-12-19T08:06:38.481Z,1.00
2018-12-19T08:09:12.567Z,1.00
2018-12-19T08:11:45.042Z,1.00
2018-12-19T08:14:14.447Z,1.10
2018-12-19T08:16:47.610Z,1.10
2018-12-19T08:19:16.020Z,1.20
2018-12-19T08:21:51.724Z,1.30
2018-12-19T08:24:26.596Z,1.40
2018-12-19T08:26:58.842Z,1.40
2018-12-19T08:29:32.304Z,1.50
2018-12-19T08:32:04.777Z,1.50
2018-12-19T08:34:36.393Z,1.60
2018-12-19T08:37:10.204Z,1.60
2018-12-19T08:39:42.555Z,1.60
2018-12-19T08:42:15.233Z,1.70
2018-12-19T08:44:47.567Z,1.80
2018-12-19T08:47:20.179Z,1.90
2018-12-19T08:49:53.258Z,1.80
2018-12-19T08:52:25.088Z,1.80
2018-12-19T08:54:58.103Z,1.80
2018-12-19T08:57:31.726Z,1.90
2018-12-19T09:00:04.259Z,2.00
2018-12-19T09:02:35.481Z,2.10
2018-12-19T09:05:08.726Z,2.20
2018-12-19T09:07:40.907Z,2.30
2018-12-19T09:10:14.620Z,2.40
2018-12-19T09:12:49.395Z,2.40
2018-12-19T09:15:27.645Z,2.50
2018-12-19T09:17:55.509Z,2.50
2018-12-19T09:20:26.818Z,2.60
2018-12-19T09:23:03.155Z,2.60
2018-12-19T09:25:36.109Z,2.70
2018-12-19T09:28:11.599Z,2.80
2018-12-19T09:30:44.906Z,2.70
2018-12-19T09:33:27.170Z,2.80
2018-12-19T09:35:56.538Z,2.70
2018-12-19T09:38:30.538Z,2.70
2018-12-19T09:41:04.435Z,2.70
2018-12-19T09:43:40.211Z,2.70
2018-12-19T09:46:15.639Z,2.80
2018-12-19T09:48:49.490Z,2.80
2018-12-19T09:51:18.352Z,2.90
2018-12-19T09:53:53.315Z,3.00
2018-12-19T09:56:26.035Z,3.00
2018-12-19T09:58:58.703Z,3.10
2018-12-19T10:01:31.723Z,3.10
2018-12-19T10:04:06.586Z,3.20
2018-12-19T10:06:38.446Z,3.30
2018-12-19T10:09:14.764Z,3.20
2018-12-19T10:11:46.901Z,3.20
2018-12-19T10:14:17.398Z,3.40
2018-12-19T10:16:51.539Z,3.40
2018-12-19T10:19:25.910Z,3.50
2018-12-19T10:21:58.940Z,3.50
2018-12-19T10:24:37.441Z,3.50
2018-12-19T10:27:09.747Z,3.50
2018-12-19T10:29:41.603Z,3.60
2018-12-19T10:32:14.239Z,3.70
2018-12-19T10:34:51.723Z,3.80
2018-12-19T10:37:24.859Z,3.90
2018-12-19T10:40:01.002Z,3.90
2018-12-19T10:42:37.616Z,4.00
2018-12-19T10:45:13.332Z,4.10
2018-12-19T10:47:46.071Z,4.10
2018-12-19T10:50:20.988Z,4.10
2018-12-19T10:52:50.389Z,4.10
2018-12-19T10:58:01.094Z,4.30
2018-12-19T11:00:37.260Z,4.20
2018-12-19T11:03:11.725Z,4.20
2018-12-19T11:05:42.694Z,4.30
2018-12-19T11:08:16.092Z,4.30
2018-12-19T11:10:45.166Z,4.40
2018-12-19T11:13:16.193Z,4.60
2018-12-19T11:15:50.450Z,4.70
2018-12-19T11:18:25.076Z,4.80
2018-12-19T11:20:57.234Z,4.80
2018-12-19T11:23:29.484Z,4.80
2018-12-19T11:26:04.027Z,4.90
2018-12-19T11:28:39.540Z,4.90
2018-12-19T11:31:12.281Z,4.90
2018-12-19T11:33:45.172Z,5.00
2018-12-19T11:36:19.003Z,4.80
2018-12-19T11:38:53.411Z,4.80
2018-12-19T11:41:30.389Z,4.70
2018-12-19T11:44:05.092Z,4.70
2018-12-19T11:46:35.941Z,4.50
2018-12-19T11:49:12.207Z,4.40
2018-12-19T11:51:47.493Z,4.40
2018-12-19T11:54:20.694Z,4.50
2018-12-19T11:56:53.605Z,4.60
2018-12-19T11:59:24.614Z,4.60
2018-12-19T12:01:56.756Z,4.60
2018-12-19T12:04:31.389Z,4.60
2018-12-19T12:07:04.378Z,4.70
2018-12-19T12:09:37.780Z,4.70
2018-12-19T12:12:12.185Z,4.70
2018-12-19T12:14:41.830Z,4.70
2018-12-19T12:17:11.103Z,4.70
2018-12-19T12:19:47.271Z,4.70
2018-12-19T12:22:21.724Z,4.70
2018-12-19T12:24:53.989Z,4.70
2018-12-19T12:27:27.226Z,4.70
2018-12-19T12:29:59.782Z,4.70
2018-12-19T12:32:34.851Z,4.70
2018-12-19T12:35:08.444Z,4.80
2018-12-19T12:37:39.584Z,4.90
2018-12-19T12:40:12.389Z,5.00
2018-12-19T12:42:46.192Z,5.10
2018-12-19T12:45:18.569Z,5.20
2018-12-19T12:47:53.474Z,5.20
2018-12-19T12:50:26.451Z,5.30
2018-12-19T12:53:00.882Z,5.30
2018-12-19T12:55:32.870Z,5.30
2018-12-19T12:58:06.713Z,5.30
2018-12-19T13:00:41.724Z,5.20
2018-12-19T13:03:23.253Z,5.20
2018-12-19T13:05:57.702Z,5.10
2018-12-19T13:08:31.301Z,5.10
2018-12-19T13:11:05.075Z,5.10
2018-12-19T13:13:38.122Z,5.10
2018-12-19T13:16:10.655Z,5.20
2018-12-19T13:18:47.855Z,5.30
2018-12-19T13:21:22.475Z,5.30
2018-12-19T13:23:58.447Z,5.30
2018-12-19T13:26:31.847Z,5.40
2018-12-19T13:29:05.010Z,5.30
2018-12-19T13:31:37.578Z,5.30
2018-12-19T13:34:11.641Z,5.30
2018-12-19T13:36:40.892Z,5.20
2018-12-19T13:39:14.747Z,5.00
2018-12-19T13:41:45.967Z,5.00
2018-12-19T13:44:16.568Z,4.90
2018-12-19T13:46:49.782Z,4.90
2018-12-19T13:49:19.991Z,4.80
2018-12-19T13:51:53.375Z,4.80
2018-12-19T13:54:21.724Z,4.70
2018-12-19T13:56:56.437Z,4.70
2018-12-19T13:59:30.673Z,4.70
2018-12-19T14:02:04.270Z,4.70
2018-12-19T14:04:37.188Z,4.80
2018-12-19T14:07:07.866Z,4.80
2018-12-19T14:09:36.661Z,4.80
2018-12-19T14:12:12.394Z,4.80
2018-12-19T14:14:47.338Z,4.70
2018-12-19T14:17:19.376Z,4.70
2018-12-19T14:19:52.355Z,4.70
2018-12-19T14:22:24.995Z,4.70
2018-12-19T14:24:58.365Z,4.80
2018-12-19T14:27:31.825Z,4.80
2018-12-19T14:30:06.365Z,4.80
2018-12-19T14:32:40.388Z,4.80
2018-12-19T14:35:11.443Z,4.70
2018-12-19T14:37:44.848Z,4.60
2018-12-19T14:40:12.883Z,4.60
2018-12-19T14:42:47.399Z,4.50
2018-12-19T14:45:19.880Z,4.50
2018-12-19T14:47:52.304Z,4.50
2018-12-19T14:50:26.479Z,4.50
2018-12-19T14:52:58.759Z,4.50
2018-12-19T14:55:31.317Z,4.50
2018-12-19T14:58:02.930Z,4.50
2018-12-19T15:00:36.028Z,4.50
2018-12-19T15:03:08.606Z,4.60
2018-12-19T15:05:38.519Z,4.60
2018-12-19T15:08:09.372Z,4.60
2018-12-19T15:10:43.054Z,4.60
2018-12-19T15:13:15.278Z,4.40
2018-12-19T15:15:47.611Z,4.40
2018-12-19T15:18:22.057Z,4.40
2018-12-19T15:20:52.185Z,4.40
2018-12-19T15:23:26.342Z,4.40
2018-12-19T15:25:57.042Z,4.50
2018-12-19T15:28:30.533Z,4.50
2018-12-19T15:31:02.437Z,4.50
2018-12-19T15:33:30.043Z,4.60
2018-12-19T15:35:57.594Z,4.70
2018-12-19T15:38:26.273Z,4.80
2018-12-19T15:40:57.963Z,4.90
2018-12-19T15:43:25.511Z,4.90
2018-12-19T15:45:57.080Z,4.90
2018-12-19T15:48:32.631Z,4.90
2018-12-19T15:51:01.455Z,4.90
2018-12-19T15:53:34.690Z,4.90
2018-12-19T15:56:02.255Z,4.90
2018-12-19T15:58:29.852Z,4.80
2018-12-19T16:01:00.139Z,4.70
2018-12-19T16:03:33.415Z,4.60
2018-12-19T16:06:03.036Z,4.60
2018-12-19T16:08:36.020Z,4.50
2018-12-19T16:11:08.612Z,4.40
2018-12-19T16:13:42.511Z,4.40
2018-12-19T16:16:15.794Z,4.40
2018-12-19T16:18:50.338Z,4.40
2018-12-19T16:21:23.956Z,4.30
2018-12-19T16:23:59.655Z,4.20
2018-12-19T16:26:33.028Z,4.10
2018-12-19T16:29:05.802Z,4.00
2018-12-19T16:31:38.260Z,4.00
2018-12-19T16:34:11.335Z,4.00
2018-12-19T16:36:43.987Z,4.00
2018-12-19T16:39:18.668Z,3.90
2018-12-19T16:41:51.691Z,3.90
2018-12-19T16:44:19.712Z,4.00
2018-12-19T16:46:47.790Z,4.00
2018-12-19T16:49:16.668Z,4.10
2018-12-19T16:51:50.113Z,4.20
2018-12-19T16:54:18.869Z,4.40
2018-12-19T16:56:48.000Z,4.40
2018-12-19T16:59:18.490Z,4.50
2018-12-19T17:01:53.011Z,4.50
2018-12-19T17:04:27.099Z,4.40
2018-12-19T17:06:57.359Z,4.40
2018-12-19T17:09:31.720Z,4.30
2018-12-19T17:12:03.563Z,4.30
2018-12-19T17:14:35.243Z,4.20
2018-12-19T17:17:07.466Z,4.30
2018-12-19T17:19:40.741Z,4.30
2018-12-19T17:22:13.417Z,4.40
2018-12-19T17:24:46.748Z,4.30
2018-12-19T17:27:17.177Z,4.30
2018-12-19T17:29:45.501Z,4.30
2018-12-19T17:32:13.322Z,4.40
2018-12-19T17:34:41.017Z,4.50
2018-12-19T17:37:11.512Z,4.60
2018-12-19T17:39:47.946Z,4.60
2018-12-19T17:42:24.301Z,4.50
2018-12-19T17:45:02.786Z,4.40
2018-12-19T17:47:36.509Z,4.20
2018-12-19T17:50:08.784Z,4.20
2018-12-19T17:52:45.203Z,4.30
2018-12-19T17:55:15.642Z,4.30
2018-12-19T17:57:46.536Z,4.30
2018-12-19T18:00:17.114Z,4.30
2018-12-19T18:02:48.002Z,4.20
2018-12-19T18:05:16.140Z,4.10
2018-12-19T18:07:44.151Z,4.10
2018-12-19T18:10:12.224Z,4.00
2018-12-19T18:12:41.394Z,3.90
2018-12-19T18:15:15.767Z,3.80
2018-12-19T18:17:47.024Z,3.70
2018-12-19T18:20:18.696Z,3.70
2018-12-19T18:22:51.575Z,3.70
2018-12-19T18:25:24.232Z,3.70
2018-12-19T18:27:57.924Z,3.70
2018-12-19T18:30:33.176Z,3.70
2018-12-19T18:33:07.091Z,3.70
2018-12-19T18:35:38.050Z,3.50
2018-12-19T18:38:11.724Z,3.40
2018-12-19T18:40:44.979Z,3.40
2018-12-19T18:43:17.651Z,3.40
2018-12-19T18:45:54.115Z,3.50
2018-12-19T18:48:25.912Z,3.40
2018-12-19T18:50:58.803Z,3.30
2018-12-19T18:53:34.248Z,3.10
2018-12-19T18:56:07.047Z,3.00
2018-12-19T18:58:40.582Z,3.10
2018-12-19T19:01:12.551Z,3.20
2018-12-19T19:03:46.211Z,3.20
2018-12-19T19:06:17.548Z,3.20
2018-12-19T19:08:49.986Z,3.20
2018-12-19T19:11:22.264Z,3.30
2018-12-19T19:13:55.253Z,3.30
2018-12-19T19:16:26.634Z,3.40
2018-12-19T19:18:58.669Z,3.40
2018-12-19T19:21:31.004Z,3.40
2018-12-19T19:24:02.950Z,3.50
2018-12-19T19:26:35.288Z,3.50
2018-12-19T19:29:09.131Z,3.50
2018-12-19T19:31:42.004Z,3.50
2018-12-19T19:34:14.119Z,3.50
2018-12-19T19:36:46.909Z,3.40
2018-12-19T19:39:16.564Z,3.40
2018-12-19T19:41:51.221Z,3.30
2018-12-19T19:44:19.135Z,3.30
2018-12-19T19:46:54.437Z,3.40
2018-12-19T19:49:26.923Z,3.40
2018-12-19T19:52:01.207Z,3.50
2018-12-19T19:54:32.541Z,3.50
2018-12-19T19:57:00.380Z,3.50
2018-12-19T19:59:31.343Z,3.40
2018-12-19T20:02:05.677Z,3.30
2018-12-19T20:04:41.681Z,3.30
2018-12-19T20:07:16.216Z,3.30
2018-12-19T20:09:50.585Z,3.30
2018-12-19T20:12:24.319Z,3.40
2018-12-19T20:14:56.369Z,3.40
2018-12-19T20:17:32.238Z,3.40
2018-12-19T20:20:07.233Z,3.40
2018-12-19T20:22:41.003Z,3.40
2018-12-19T20:25:14.674Z,3.50
2018-12-19T20:27:46.833Z,3.60
2018-12-19T20:30:16.444Z,3.60
2018-12-19T20:32:50.976Z,3.60
2018-12-19T20:35:22.235Z,3.60
2018-12-19T20:37:58.280Z,3.60
2018-12-19T20:40:31.463Z,3.60
2018-12-19T20:43:06.556Z,3.60
2018-12-19T20:45:38.216Z,3.70
2018-12-19T20:48:14.829Z,3.70
2018-12-19T20:50:48.527Z,3.80
2018-12-19T20:53:22.466Z,3.80
2018-12-19T20:55:55.538Z,3.70
2018-12-19T20:58:31.724Z,3.60
2018-12-19T21:01:08.142Z,3.50
2018-12-19T21:03:45.260Z,3.50
2018-12-19T21:06:20.265Z,3.60
2018-12-19T21:08:58.668Z,3.60
2018-12-19T21:11:27.807Z,3.60
2018-12-19T21:14:02.914Z,3.60
2018-12-19T21:16:43.342Z,3.50
2018-12-19T21:19:17.873Z,3.50
2018-12-19T21:21:49.261Z,3.40
2018-12-19T21:24:24.681Z,3.40
2018-12-19T21:26:57.721Z,3.30
2018-12-19T21:29:31.723Z,3.20
2018-12-19T21:32:02.207Z,3.20
2018-12-19T21:34:38.157Z,3.20
2018-12-19T21:37:13.636Z,3.20
2018-12-19T21:39:47.503Z,3.30
2018-12-19T21:42:18.132Z,3.30
2018-12-19T21:44:52.174Z,3.40
2018-12-19T21:47:26.574Z,3.40
2018-12-19T21:49:57.667Z,3.30
2018-12-19T21:52:31.928Z,3.20
2018-12-19T21:55:03.987Z,3.10
2018-12-19T21:57:36.423Z,3.10
2018-12-19T22:00:13.249Z,3.10
2018-12-19T22:02:46.144Z,3.10
2018-12-19T22:05:16.950Z,3.00
2018-12-19T22:07:51.723Z,3.00
2018-12-19T22:10:26.526Z,2.90
2018-12-19T22:13:02.676Z,2.90
2018-12-19T22:15:36.245Z,2.90
2018-12-19T22:18:11.176Z,2.90
2018-12-19T22:20:40.929Z,2.90
2018-12-19T22:23:16.610Z,3.00
2018-12-19T22:25:51.742Z,2.90
2018-12-19T22:28:24.037Z,2.90
2018-12-19T22:30:52.300Z,2.90
2018-12-19T22:33:28.663Z,2.90
2018-12-19T22:36:04.155Z,2.90
2018-12-19T22:38:41.721Z,2.90
2018-12-19T22:41:18.028Z,2.80
2018-12-19T22:43:52.572Z,2.80
2018-12-19T22:46:26.284Z,2.70
2018-12-19T22:49:00.280Z,2.70
2018-12-19T22:54:09.099Z,2.60
2018-12-19T22:56:42.521Z,2.70
2018-12-19T22:59:17.892Z,2.80
2018-12-19T23:01:58.284Z,2.90
2018-12-19T23:04:32.422Z,3.00
2018-12-19T23:07:08.259Z,3.00
2018-12-19T23:09:41.806Z,3.00
2018-12-19T23:12:17.147Z,3.00
2018-12-19T23:14:52.920Z,3.00
2018-12-19T23:17:34.444Z,3.00
2018-12-19T23:20:09.742Z,3.00
2018-12-19T23:22:45.623Z,3.00
2018-12-19T23:25:20.403Z,3.00
2018-12-19T23:27:56.097Z,3.00
2018-12-19T23:30:31.109Z,3.00
2018-12-19T23:33:07.072Z,3.00
2018-12-19T23:35:40.172Z,2.90
2018-12-19T23:38:15.553Z,2.90
2018-12-19T23:40:50.903Z,2.90
2018-12-19T23:43:24.185Z,2.90
2018-12-19T23:45:56.626Z,2.90
2018-12-19T23:48:31.720Z,2.90
2018-12-19T23:51:04.204Z,3.00
2018-12-19T23:53:37.257Z,3.00
2018-12-19T23:56:13.520Z,3.00
2018-12-19T23:58:48.018Z,3.10
